Orr, Minnesota
Current Conditions -  °F | °C
As of 11:53 PM on Sunday 19 Oct 2014 (Local Time) from KORB Reporting Station
Broken Clouds Broken Clouds  
Wind Chill: 46°   Ceiling: 4300
Heat Index: 46°   Visibility: 10mi
Dew Point: 39°   Wind: 0mph
Humidity: 76%   Direction: NA
Pressure: 29.82"   Gusts: NA
Location:  48.05°N, 92.83°W
Report Text: KORB 200453Z AUTO 00000KT 10SM BKN043 08/04 A2982 RMK AO2
Loading
Personal Weather Stations






























Interactive Weather Map
Tropical Storm Tracking
New forecast layout! Learn more

10-Day Weather Forecast

Advertisements
Track Severe Weather on mobile